This is the latest recevied weather packets stored in our database for station/object N5CNB-2. If no packets are shown the sender has not sent any weather packets the latest 10 day(s).
| Time | Temp. | Humidity | Pressure | Rain* | Wind** | Luminosity | Snow |
|---|---|---|---|---|---|---|---|
| 1777511766 | 22.22° C | 84% | 1010.5 hPa | 0 mm | - | - | - |
| 1777510850 | 22.78° C | 83% | 1010 hPa | 0 mm | - | - | - |
| 1777509949 | 23.33° C | 83% | 1009.7 hPa | 0 mm | - | - | - |
| 1777509055 | 24.44° C | 80% | 1009.8 hPa | 0 mm | - | - | - |
| 1777508153 | 27.22° C | 74% | 1009.3 hPa | 0 mm | - | - | - |
| 1777507251 | 28.33° C | 73% | 1009.2 hPa | 0 mm | - | - | - |
| 1777506346 | 28.33° C | 73% | 1009.1 hPa | 0 mm | - | - | - |
| 1777505449 | 28.89° C | 72% | 1009.2 hPa | 0 mm | - | - | - |
| 1777504548 | 28.89° C | 71% | 1009.1 hPa | 0 mm | - | - | - |
| 1777503650 | 29.44° C | 70% | 1009.2 hPa | 0 mm | - | - | - |
| 1777502769 | 29.44° C | 70% | 1008.8 hPa | 0 mm | - | - | - |
| 1777501852 | 30° C | 70% | 1008.6 hPa | 0 mm | - | - | - |
| 1777500960 | 30° C | 70% | 1008.9 hPa | 0 mm | - | - | - |
| 1777500054 | 29.44° C | 73% | 1008.8 hPa | 0 mm | - | - | - |
| 1777499152 | 29.44° C | 74% | 1009 hPa | 0 mm | - | - | - |
| 1777498254 | 28.33° C | 77% | 1009.7 hPa | 0 mm | - | - | - |
| 1777497358 | 27.78° C | 76% | 1010.5 hPa | 0 mm | - | - | - |
| 1777496455 | 28.33° C | 75% | 1010 hPa | 0 mm | - | - | - |
| 1777495559 | 28.33° C | 75% | 1010.3 hPa | 0 mm | - | - | - |
| 1777494653 | 28.33° C | 73% | 1010.4 hPa | 0 mm | - | - | - |
| 1777493750 | 28.89° C | 73% | 1010.3 hPa | 0 mm | - | - | - |
| 1777492853 | 29.44° C | 71% | 1010.6 hPa | 0 mm | - | - | - |
| 1777491953 | 29.44° C | 71% | 1010.6 hPa | 0 mm | - | - | - |
| 1777491056 | 29.44° C | 72% | 1010.9 hPa | 0 mm | - | - | - |
| 1777490151 | 28.89° C | 72% | 1010.9 hPa | 0 mm | - | - | - |
* Rain latest hour (hover to see other rain measurements)
** Current wind speed in m/s (hover to see current wind gust speed)